Time;durP1;ratioP1;P1;durP2;ratioP2;P2;SDS_P1;SDS_P2;PMS_P1;PMS_P2;Temp;Humidity;BMP_temperature;BMP_pressure;BME280_temperature;BME280_humidity;BME280_pressure;Samples;Min_cycle;Max_cycle;Signal;HPM_P1;HPM_P2
2022/05/20 00:02:06;;;;;;;12.30;5.43;;;13.30;99.90;;;;;;5012104;28;20586;-67
2022/05/20 00:04:31;;;;;;;11.02;6.22;;;13.30;99.90;;;;;;4986006;28;20053;-67
2022/05/20 00:06:57;;;;;;;13.10;7.22;;;13.20;99.90;;;;;;4986564;28;20078;-67
2022/05/20 00:09:23;;;;;;;12.30;6.72;;;13.20;99.90;;;;;;5006355;28;20039;-66
2022/05/20 00:11:48;;;;;;;15.57;5.97;;;13.20;99.90;;;;;;4985428;28;20042;-66
2022/05/20 00:14:14;;;;;;;14.07;6.95;;;13.20;99.90;;;;;;4980386;28;20034;-66
2022/05/20 00:16:40;;;;;;;12.18;6.82;;;13.20;99.90;;;;;;5013050;28;20048;-66
2022/05/20 00:19:08;;;;;;;14.10;6.13;;;13.20;99.90;;;;;;5012823;28;20444;-66
2022/05/20 00:21:35;;;;;;;13.43;6.75;;;13.20;99.90;;;;;;4982294;28;20101;-67
2022/05/20 00:24:02;;;;;;;10.93;6.40;;;13.20;99.90;;;;;;4966652;28;20388;-67
2022/05/20 00:26:28;;;;;;;12.05;6.00;;;13.20;99.90;;;;;;4987208;28;20411;-66
2022/05/20 00:28:54;;;;;;;12.93;6.10;;;13.20;99.90;;;;;;4983799;28;20046;-67
2022/05/20 00:31:24;;;;;;;14.73;6.32;;;13.10;99.90;;;;;;4989361;28;20050;-67
2022/05/20 00:33:51;;;;;;;13.50;6.90;;;13.10;99.90;;;;;;5015851;28;20042;-66
2022/05/20 00:36:17;;;;;;;12.30;6.30;;;13.10;99.90;;;;;;5016330;28;20511;-67
2022/05/20 00:38:42;;;;;;;10.10;6.43;;;13.00;99.90;;;;;;4991099;28;20446;-67
2022/05/20 00:41:09;;;;;;;12.38;6.22;;;12.90;99.90;;;;;;4988143;28;20042;-68
2022/05/20 00:43:38;;;;;;;12.75;6.43;;;12.80;99.90;;;;;;5018518;28;20073;-67
2022/05/20 00:46:08;;;;;;;11.60;6.22;;;12.70;99.90;;;;;;4971158;28;20074;-67
2022/05/20 00:48:34;;;;;;;10.27;6.25;;;12.70;99.90;;;;;;4990685;28;20462;-67
2022/05/20 00:51:14;;;;;;;14.35;7.30;;;12.60;99.90;;;;;;4992200;28;20401;-67
2022/05/20 00:54:21;;;;;;;12.63;7.07;;;12.60;99.90;;;;;;4996521;28;20042;-66
2022/05/20 00:57:08;;;;;;;12.38;6.80;;;12.50;99.90;;;;;;5022125;28;20057;-66
2022/05/20 00:59:37;;;;;;;13.43;7.15;;;12.40;99.90;;;;;;5003920;28;20078;-66
2022/05/20 01:02:15;;;;;;;17.00;7.70;;;12.40;99.90;;;;;;4989085;28;20062;-67
2022/05/20 01:04:42;;;;;;;13.90;7.57;;;12.50;99.90;;;;;;5013059;28;20058;-67
2022/05/20 01:07:09;;;;;;;14.80;7.40;;;12.20;99.90;;;;;;4984425;28;20392;-67
2022/05/20 01:09:38;;;;;;;14.40;7.70;;;12.20;99.90;;;;;;4986979;28;20046;-66
2022/05/20 01:12:08;;;;;;;13.75;7.70;;;12.20;99.90;;;;;;4997729;28;20065;-66
2022/05/20 01:14:34;;;;;;;13.60;7.97;;;12.10;99.90;;;;;;4998186;28;20054;-67
2022/05/20 01:17:00;;;;;;;14.32;8.05;;;12.00;99.90;;;;;;4997315;28;20086;-67
2022/05/20 01:19:35;;;;;;;11.93;8.10;;;12.00;99.90;;;;;;4988387;28;20084;-67
2022/05/20 01:22:04;;;;;;;14.18;7.57;;;11.80;99.90;;;;;;5001669;28;20104;-67
2022/05/20 01:24:29;;;;;;;12.75;7.80;;;11.80;99.90;;;;;;4985062;28;20038;-67
2022/05/20 01:26:55;;;;;;;13.50;8.63;;;11.80;99.90;;;;;;5021693;28;20109;-67
2022/05/20 01:29:21;;;;;;;14.95;8.43;;;11.70;99.90;;;;;;5011287;28;20050;-67
2022/05/20 01:31:46;;;;;;;14.52;8.00;;;11.70;99.90;;;;;;4987396;28;20043;-67
2022/05/20 01:34:12;;;;;;;15.57;9.18;;;11.70;99.90;;;;;;4988487;28;20053;-67
2022/05/20 01:36:38;;;;;;;17.38;9.70;;;11.70;99.90;;;;;;5012640;28;20121;-67
2022/05/20 01:39:05;;;;;;;12.38;8.23;;;11.70;99.90;;;;;;4988034;28;20515;-67
2022/05/20 01:41:49;;;;;;;15.88;8.85;;;11.70;99.90;;;;;;4985082;28;20352;-67
2022/05/20 01:44:18;;;;;;;15.43;10.02;;;11.70;99.90;;;;;;4986273;28;20101;-67
2022/05/20 01:47:06;;;;;;;15.45;9.75;;;11.60;99.90;;;;;;4988346;28;20112;-67
2022/05/20 01:49:39;;;;;;;20.58;11.00;;;11.70;99.90;;;;;;4993171;28;20050;-67
2022/05/20 01:52:15;;;;;;;17.35;9.55;;;11.70;99.90;;;;;;4987406;28;20411;-67
2022/05/20 01:54:56;;;;;;;13.77;9.50;;;11.70;99.90;;;;;;4980976;28;20049;-67
2022/05/20 01:57:43;;;;;;;15.30;9.80;;;11.60;99.90;;;;;;5006680;28;20050;-67
2022/05/20 02:00:14;;;;;;;14.38;9.57;;;11.60;99.90;;;;;;4984063;28;20585;-67
2022/05/20 02:02:52;;;;;;;15.43;10.23;;;11.60;99.90;;;;;;4987439;28;20529;-67
2022/05/20 02:05:38;;;;;;;20.23;10.00;;;11.50;99.90;;;;;;5010688;28;20046;-67
2022/05/20 02:08:20;;;;;;;15.98;10.02;;;11.50;99.90;;;;;;4969805;28;20126;-67
2022/05/20 02:11:02;;;;;;;16.95;9.85;;;11.50;99.90;;;;;;4985628;28;20066;-67
2022/05/20 02:13:32;;;;;;;17.08;9.60;;;11.40;99.90;;;;;;5004365;28;20282;-67
2022/05/20 02:16:03;;;;;;;17.90;10.90;;;11.40;99.90;;;;;;5007961;28;20039;-66
2022/05/20 02:18:32;;;;;;;;;;;11.30;99.90;;;;;;4967993;28;20377;-67
2022/05/20 02:21:03;;;;;;;16.70;9.85;;;11.30;99.90;;;;;;4986572;28;20310;-67
2022/05/20 02:23:35;;;;;;;14.73;9.10;;;11.20;99.90;;;;;;4987863;28;20545;-66
2022/05/20 02:26:04;;;;;;;15.40;9.98;;;11.20;99.90;;;;;;5002671;28;20059;-67
2022/05/20 02:28:35;;;;;;;16.42;10.35;;;11.10;99.90;;;;;;4987862;28;20050;-67
2022/05/20 02:31:04;;;;;;;15.25;9.55;;;11.10;99.90;;;;;;4984089;28;20045;-66
2022/05/20 02:33:31;;;;;;;12.98;9.80;;;11.00;99.90;;;;;;4987521;28;20070;-67
2022/05/20 02:36:03;;;;;;;16.27;9.90;;;11.00;99.90;;;;;;4984477;28;20121;-66
2022/05/20 02:38:28;;;;;;;17.95;10.57;;;10.90;99.90;;;;;;4983941;28;20591;-67
2022/05/20 02:40:54;;;;;;;16.83;11.20;;;10.90;99.90;;;;;;4986980;28;20485;-67
2022/05/20 02:43:22;;;;;;;17.90;10.82;;;10.90;99.90;;;;;;4993064;28;20052;-66
2022/05/20 02:45:49;;;;;;;18.02;10.60;;;11.10;99.90;;;;;;4988771;28;20034;-66
2022/05/20 02:48:17;;;;;;;16.92;10.60;;;10.80;99.90;;;;;;4989236;28;20070;-66
2022/05/20 02:50:43;;;;;;;16.02;10.68;;;10.80;99.90;;;;;;4987628;28;20121;-66
2022/05/20 02:53:09;;;;;;;17.25;10.35;;;10.90;99.90;;;;;;4988546;28;20038;-67
2022/05/20 02:55:38;;;;;;;16.17;10.07;;;10.80;99.90;;;;;;4986507;28;20046;-67
2022/05/20 02:58:04;;;;;;;15.73;10.43;;;10.80;99.90;;;;;;4989100;28;20402;-67
2022/05/20 03:05:59;;;;;;;16.00;10.30;;;10.80;99.90;;;;;;4999951;28;20038;-68
2022/05/20 03:08:25;;;;;;;14.82;11.10;;;10.80;99.90;;;;;;4972022;28;20455;-67
2022/05/20 03:10:50;;;;;;;17.63;11.43;;;10.70;99.90;;;;;;4986164;28;20508;-67
2022/05/20 03:13:16;;;;;;;17.65;11.98;;;10.70;99.90;;;;;;4988507;28;20074;-66
2022/05/20 03:15:42;;;;;;;16.88;11.25;;;11.10;99.90;;;;;;4985244;28;20086;-67
2022/05/20 03:18:10;;;;;;;20.42;12.05;;;10.70;99.90;;;;;;4971823;28;20073;-66
2022/05/20 03:20:41;;;;;;;19.33;12.85;;;10.70;99.90;;;;;;4986888;28;20061;-66
2022/05/20 03:23:09;;;;;;;27.75;13.00;;;10.60;99.90;;;;;;4987680;28;20462;-66
2022/05/20 03:25:37;;;;;;;21.05;12.25;;;10.60;99.90;;;;;;4968840;28;20057;-67
2022/05/20 03:28:03;;;;;;;18.95;12.13;;;10.60;99.90;;;;;;4986258;28;20134;-66
2022/05/20 03:30:28;;;;;;;19.98;12.80;;;10.60;99.90;;;;;;4986879;28;20049;-67
2022/05/20 03:32:54;;;;;;;16.33;12.15;;;10.60;99.90;;;;;;4986639;28;20046;-67
2022/05/20 03:35:20;;;;;;;20.98;12.77;;;10.60;99.90;;;;;;4966884;28;20042;-67
2022/05/20 03:37:45;;;;;;;17.45;11.93;;;10.60;99.90;;;;;;4986415;28;20042;-67
2022/05/20 03:40:11;;;;;;;18.40;12.13;;;10.60;99.90;;;;;;4986266;28;20457;-67
2022/05/20 03:42:37;;;;;;;18.60;12.45;;;10.60;99.90;;;;;;4987013;28;20035;-67
2022/05/20 03:45:03;;;;;;;14.98;11.40;;;10.60;99.90;;;;;;4985888;28;20046;-67
2022/05/20 03:47:29;;;;;;;17.10;12.10;;;10.50;99.90;;;;;;4983746;28;21412;-67
2022/05/20 03:49:54;;;;;;;17.70;13.35;;;10.60;99.90;;;;;;4983697;28;20038;-67
2022/05/20 03:52:20;;;;;;;22.67;13.60;;;10.50;99.90;;;;;;4986103;28;20038;-67
2022/05/20 03:54:46;;;;;;;18.73;12.68;;;10.50;99.90;;;;;;5016190;28;20042;-66
2022/05/20 03:57:11;;;;;;;23.73;14.00;;;10.50;99.90;;;;;;4985347;28;20043;-67
2022/05/20 03:59:37;;;;;;;19.42;13.15;;;10.50;99.90;;;;;;4987036;28;20050;-67
2022/05/20 04:02:09;;;;;;;19.67;12.32;;;10.50;99.90;;;;;;4981540;28;20077;-66
2022/05/20 04:04:40;;;;;;;21.35;13.63;;;10.50;99.90;;;;;;4986241;28;20089;-67
2022/05/20 04:07:09;;;;;;;18.45;13.98;;;10.60;99.90;;;;;;4987491;28;20050;-67
2022/05/20 04:09:37;;;;;;;18.30;13.55;;;10.60;99.90;;;;;;4989569;28;20108;-67
2022/05/20 04:12:07;;;;;;;18.75;13.30;;;10.70;99.90;;;;;;4990791;28;20041;-67
2022/05/20 04:14:34;;;;;;;17.08;12.35;;;10.70;99.90;;;;;;4976239;28;20046;-67
2022/05/20 04:17:00;;;;;;;16.50;13.20;;;10.80;99.90;;;;;;4981027;28;20058;-67
2022/05/20 04:19:28;;;;;;;16.75;12.95;;;10.80;99.90;;;;;;4984203;28;20525;-67
2022/05/20 04:21:58;;;;;;;21.42;13.95;;;10.90;99.90;;;;;;4986152;28;20046;-68
2022/05/20 04:24:24;;;;;;;18.23;14.38;;;10.90;99.90;;;;;;4996371;28;20077;-67
2022/05/20 04:26:49;;;;;;;20.00;14.50;;;10.90;99.90;;;;;;4980609;28;20411;-67
2022/05/20 04:29:15;;;;;;;19.77;14.27;;;11.00;99.90;;;;;;4984335;28;20062;-67
2022/05/20 04:31:45;;;;;;;16.13;13.48;;;11.00;99.90;;;;;;4985357;28;20054;-67
2022/05/20 04:34:11;;;;;;;18.35;13.57;;;11.00;99.90;;;;;;4984200;28;20416;-67
2022/05/20 04:36:37;;;;;;;18.30;14.77;;;11.00;99.90;;;;;;4983589;28;20041;-67
2022/05/20 04:39:03;;;;;;;19.25;14.98;;;11.10;99.90;;;;;;4987464;28;20392;-67
2022/05/20 04:46:59;;;;;;;21.45;14.93;;;12.40;99.90;;;;;;4985985;28;20050;-67
2022/05/20 04:49:30;;;;;;;17.48;12.77;;;13.50;99.90;;;;;;4980197;28;20049;-68
2022/05/20 04:51:56;;;;;;;15.20;11.90;;;14.40;99.90;;;;;;4985733;28;20144;-67
2022/05/20 04:57:08;;;;;;;15.40;10.65;;;16.00;99.90;;;;;;4984491;28;20061;-67
2022/05/20 04:59:35;;;;;;;17.38;10.85;;;16.80;99.90;;;;;;4968433;28;20046;-68
2022/05/20 05:02:02;;;;;;;16.98;9.80;;;17.30;99.90;;;;;;4982611;28;20046;-67
2022/05/20 05:04:27;;;;;;;13.18;9.88;;;17.90;99.90;;;;;;4984888;28;20431;-67
2022/05/20 05:06:53;;;;;;;13.15;8.95;;;18.70;99.90;;;;;;4987442;28;20053;-68
2022/05/20 05:09:19;;;;;;;12.27;8.85;;;19.40;99.90;;;;;;4983689;28;20101;-68
2022/05/20 05:11:44;;;;;;;11.80;8.43;;;20.20;99.90;;;;;;4984683;28;20038;-68
2022/05/20 05:14:14;;;;;;;12.75;8.45;;;20.90;99.90;;;;;;4983143;28;20070;-68
2022/05/20 05:16:41;;;;;;;13.05;8.65;;;21.50;99.90;;;;;;4979739;28;20061;-68
2022/05/20 05:19:07;;;;;;;14.82;8.77;;;22.10;99.90;;;;;;4979276;28;20042;-67
2022/05/20 05:21:33;;;;;;;14.07;8.65;;;22.60;99.90;;;;;;4985318;28;20077;-68
2022/05/20 05:24:01;;;;;;;12.23;7.60;;;22.30;99.90;;;;;;4979633;28;20478;-68
2022/05/20 05:26:31;;;;;;;14.13;7.70;;;21.10;99.90;;;;;;4983658;28;20046;-67
2022/05/20 05:28:58;;;;;;;12.17;8.23;;;19.90;99.90;;;;;;4963814;28;20039;-67
2022/05/20 05:31:26;;;;;;;12.68;8.15;;;18.90;99.90;;;;;;4979754;28;20062;-67
2022/05/20 05:33:52;;;;;;;13.32;7.80;;;18.10;99.90;;;;;;5004836;28;20058;-68
2022/05/20 05:36:18;;;;;;;11.93;8.02;;;17.40;99.90;;;;;;4984107;28;20046;-68
2022/05/20 05:38:44;;;;;;;13.70;8.43;;;16.90;99.90;;;;;;4981346;28;20088;-67
2022/05/20 05:41:10;;;;;;;16.08;8.80;;;16.50;99.90;;;;;;4978543;28;20039;-67
2022/05/20 05:43:37;;;;;;;15.52;9.10;;;16.10;99.90;;;;;;4987042;28;20039;-67
2022/05/20 05:46:04;;;;;;;13.18;8.55;;;15.80;99.90;;;;;;4972995;28;20046;-67
2022/05/20 05:48:30;;;;;;;15.00;8.32;;;15.50;99.90;;;;;;4976649;28;20467;-67
2022/05/20 05:50:56;;;;;;;18.00;9.27;;;15.30;99.90;;;;;;4986585;28;20100;-67
2022/05/20 05:53:24;;;;;;;19.23;9.00;;;15.30;99.90;;;;;;4982513;28;20066;-68
2022/05/20 05:55:58;;;;;;;15.23;8.18;;;15.40;99.90;;;;;;4962932;28;20813;-67
2022/05/20 05:58:25;;;;;;;11.95;7.95;;;15.70;99.90;;;;;;4985205;28;20492;-67
2022/05/20 06:00:51;;;;;;;17.48;7.93;;;15.70;99.90;;;;;;4980717;28;20057;-67
2022/05/20 06:03:17;;;;;;;14.18;8.80;;;15.70;99.90;;;;;;4979506;28;20054;-67
2022/05/20 06:05:44;;;;;;;15.98;8.73;;;15.60;99.90;;;;;;4977410;28;20046;-67
2022/05/20 06:08:10;;;;;;;15.77;8.98;;;15.70;99.90;;;;;;4993479;28;20657;-68
2022/05/20 06:10:36;;;;;;;15.68;8.13;;;15.60;99.90;;;;;;4998473;28;20100;-67
2022/05/20 06:13:02;;;;;;;15.70;7.95;;;15.70;99.90;;;;;;4983710;28;20039;-67
2022/05/20 06:15:28;;;;;;;15.98;8.02;;;15.70;99.90;;;;;;4981759;28;20078;-67
2022/05/20 06:17:55;;;;;;;12.98;7.93;;;15.60;99.90;;;;;;4990599;28;20121;-68
2022/05/20 06:20:23;;;;;;;11.45;8.10;;;15.50;99.90;;;;;;4980082;28;20151;-68
2022/05/20 06:22:49;;;;;;;14.88;8.38;;;15.70;99.90;;;;;;5015220;28;20049;-67
2022/05/20 06:25:15;;;;;;;14.18;8.65;;;15.90;99.90;;;;;;4986901;28;20545;-67
2022/05/20 06:27:42;;;;;;;14.55;7.70;;;16.10;99.90;;;;;;4982962;28;20177;-67
2022/05/20 06:30:10;;;;;;;16.70;8.45;;;16.10;99.90;;;;;;4982957;28;20100;-67
2022/05/20 06:32:36;;;;;;;14.88;8.48;;;16.20;99.90;;;;;;4989500;28;20038;-67
2022/05/20 06:40:48;;;;;;;15.80;9.00;;;16.20;99.90;;;;;;4981767;28;20050;-67
2022/05/20 06:43:16;;;;;;;17.20;8.80;;;16.10;99.90;;;;;;4986244;28;20046;-67
2022/05/20 06:45:45;;;;;;;13.73;8.75;;;16.10;99.90;;;;;;4993322;28;20045;-68
2022/05/20 06:48:12;;;;;;;15.20;8.55;;;16.00;99.90;;;;;;4987526;28;20125;-68
2022/05/20 06:50:39;;;;;;;16.00;7.43;;;15.90;99.90;;;;;;4983842;28;20071;-67
2022/05/20 06:53:06;;;;;;;10.80;6.93;;;15.90;99.90;;;;;;4985356;28;20168;-67
2022/05/20 06:55:32;;;;;;;14.95;6.28;;;15.80;99.90;;;;;;4980071;28;20056;-67
2022/05/20 06:57:57;;;;;;;11.75;7.93;;;15.80;99.90;;;;;;4980805;28;20628;-67
2022/05/20 07:00:23;;;;;;;16.67;7.65;;;15.70;99.90;;;;;;4976487;28;20046;-68
2022/05/20 07:02:50;;;;;;;12.43;6.82;;;15.70;99.90;;;;;;4972860;28;20176;-67
2022/05/20 07:05:16;;;;;;;11.20;6.57;;;15.80;99.90;;;;;;4981433;28;20050;-67
2022/05/20 07:07:42;;;;;;;12.10;6.85;;;15.80;99.90;;;;;;5002517;28;20133;-67
2022/05/20 07:10:10;;;;;;;10.98;6.43;;;15.90;99.90;;;;;;4987844;28;20177;-67
2022/05/20 07:12:36;;;;;;;14.02;6.00;;;16.10;99.90;;;;;;4994411;28;20042;-68
2022/05/20 07:15:01;;;;;;;11.82;6.43;;;16.30;99.90;;;;;;4989877;28;20050;-67
2022/05/20 07:17:27;;;;;;;12.88;6.63;;;16.50;99.90;;;;;;4978513;28;20073;-67
2022/05/20 07:19:53;;;;;;;13.07;5.57;;;16.60;99.90;;;;;;4978082;28;20082;-67
2022/05/20 07:22:19;;;;;;;11.90;6.60;;;16.80;99.90;;;;;;4983980;28;20571;-67
2022/05/20 07:24:45;;;;;;;9.65;4.97;;;16.90;99.90;;;;;;5008138;28;20042;-67
2022/05/20 07:27:11;;;;;;;10.18;4.80;;;17.10;99.90;;;;;;5016029;28;20150;-67
2022/05/20 07:29:37;;;;;;;11.93;4.53;;;17.20;99.90;;;;;;4999279;28;20046;-67
2022/05/20 07:32:03;;;;;;;11.80;4.03;;;17.20;99.90;;;;;;4959968;28;20069;-67
2022/05/20 07:34:30;;;;;;;14.00;4.60;;;17.40;99.90;;;;;;4988303;28;20415;-67
2022/05/20 07:36:55;;;;;;;8.63;4.07;;;17.70;99.90;;;;;;4985756;28;20174;-68
2022/05/20 07:39:21;;;;;;;8.73;4.65;;;17.70;99.90;;;;;;4984153;28;20042;-68
2022/05/20 07:41:47;;;;;;;9.60;4.88;;;17.80;99.90;;;;;;4979282;28;20499;-67
2022/05/20 07:44:13;;;;;;;14.63;4.80;;;17.80;99.90;;;;;;4980269;28;20051;-66
2022/05/20 07:46:38;;;;;;;8.50;4.55;;;18.10;99.90;;;;;;4981640;28;20039;-67
2022/05/20 07:49:05;;;;;;;12.43;5.10;;;18.00;99.90;;;;;;4988654;28;20057;-67
2022/05/20 07:51:33;;;;;;;9.00;3.45;;;18.30;99.90;;;;;;4979911;28;20112;-68
2022/05/20 07:54:04;;;;;;;10.65;4.00;;;18.60;99.90;;;;;;4999388;28;20069;-67
2022/05/20 07:56:37;;;;;;;10.13;4.10;;;18.90;99.90;;;;;;4993969;28;20046;-67
2022/05/20 07:59:11;;;;;;;13.20;4.65;;;19.10;99.90;;;;;;4989639;28;20471;-68
2022/05/20 08:01:41;;;;;;;10.55;4.20;;;19.10;99.90;;;;;;4986444;28;20038;-68
2022/05/20 08:06:58;;;;;;;8.20;3.38;;;18.70;99.90;;;;;;4982094;28;20203;-68
2022/05/20 08:09:24;;;;;;;12.77;4.20;;;18.50;99.90;;;;;;4996965;28;20050;-67
2022/05/20 08:11:50;;;;;;;10.23;3.20;;;18.40;99.90;;;;;;4982558;28;20048;-67
2022/05/20 08:14:16;;;;;;;8.88;3.35;;;18.40;99.90;;;;;;4985930;28;20054;-68
2022/05/20 08:16:42;;;;;;;8.52;3.05;;;18.70;99.90;;;;;;4982057;28;20043;-67
2022/05/20 08:19:07;;;;;;;9.75;3.22;;;18.90;99.90;;;;;;5009241;28;20048;-68
2022/05/20 08:21:34;;;;;;;8.15;2.45;;;19.00;99.90;;;;;;4982794;28;20039;-68
2022/05/20 08:23:59;;;;;;;8.57;3.03;;;19.20;99.90;;;;;;4992712;28;20050;-68
2022/05/20 08:26:25;;;;;;;9.63;2.22;;;19.30;99.90;;;;;;4988809;28;20050;-67
2022/05/20 08:28:51;;;;;;;9.20;2.55;;;19.50;99.90;;;;;;4983286;28;20069;-68
2022/05/20 08:31:17;;;;;;;9.13;2.58;;;19.50;99.90;;;;;;4995822;28;20074;-67
2022/05/20 08:33:43;;;;;;;8.40;2.55;;;19.60;99.90;;;;;;5007550;28;20069;-67
2022/05/20 08:36:09;;;;;;;5.43;2.33;;;19.40;99.90;;;;;;4973159;28;20046;-66
2022/05/20 08:38:38;;;;;;;8.70;3.00;;;19.30;99.90;;;;;;5015205;28;20112;-66
2022/05/20 08:41:04;;;;;;;10.02;3.17;;;19.10;99.90;;;;;;4986454;28;20530;-66
2022/05/20 08:43:34;;;;;;;9.60;2.88;;;19.10;99.90;;;;;;4996272;28;20094;-66
2022/05/20 08:46:01;;;;;;;6.47;2.70;;;19.10;99.90;;;;;;4966366;28;20562;-66
2022/05/20 08:48:28;;;;;;;8.05;2.45;;;19.20;99.90;;;;;;4974349;28;20038;-66
2022/05/20 08:50:56;;;;;;;6.30;2.20;;;19.50;99.90;;;;;;4960698;28;20393;-66
2022/05/20 08:53:35;;;;;;;7.20;2.30;;;19.70;99.90;;;;;;4967476;28;20112;-66
2022/05/20 08:56:08;;;;;;;6.00;2.35;;;19.80;99.90;;;;;;4975138;28;20375;-65
2022/05/20 08:58:40;;;;;;;7.20;2.35;;;20.00;99.90;;;;;;4991703;28;20034;-65
2022/05/20 09:01:08;;;;;;;9.73;2.50;;;20.20;99.90;;;;;;4996480;28;20109;-65
2022/05/20 09:03:34;;;;;;;7.70;2.45;;;20.30;99.90;;;;;;4983364;28;20066;-66
2022/05/20 09:06:10;;;;;;;7.75;2.60;;;20.50;99.90;;;;;;4982492;28;20600;-66
2022/05/20 09:08:36;;;;;;;6.07;2.45;;;20.60;99.90;;;;;;5014332;28;20165;-65
2022/05/20 09:11:04;;;;;;;7.05;2.40;;;20.70;99.90;;;;;;4985382;28;20547;-66
2022/05/20 09:16:24;;;;;;;8.07;2.60;;;20.80;99.90;;;;;;4987452;28;20091;-65
2022/05/20 09:19:13;;;;;;;6.28;2.17;;;20.70;99.90;;;;;;4979200;28;20078;-66
2022/05/20 09:21:41;;;;;;;8.25;2.67;;;20.70;99.90;;;;;;5004748;28;20050;-66
2022/05/20 09:24:21;;;;;;;9.50;2.90;;;20.60;99.90;;;;;;4971551;28;20034;-66
2022/05/20 09:27:06;;;;;;;5.28;2.15;;;20.50;99.90;;;;;;4973402;28;20046;-66
2022/05/20 09:29:48;;;;;;;6.15;2.30;;;20.50;99.90;;;;;;4977984;28;20057;-67
2022/05/20 09:32:25;;;;;;;8.55;2.60;;;20.50;99.90;;;;;;4978193;28;20410;-65
2022/05/20 09:35:02;;;;;;;7.80;2.30;;;20.60;99.90;;;;;;4975766;28;20077;-66
2022/05/20 09:37:30;;;;;;;7.95;2.30;;;20.70;99.90;;;;;;4977657;28;20046;-65
2022/05/20 09:39:56;;;;;;;7.43;2.95;;;20.70;99.90;;;;;;5006321;28;20545;-65
2022/05/20 09:42:29;;;;;;;9.55;3.25;;;20.70;99.90;;;;;;4980934;28;20042;-66
2022/05/20 09:45:03;;;;;;;9.40;4.20;;;20.60;99.90;;;;;;4982943;28;20475;-65
2022/05/20 09:47:40;;;;;;;7.60;2.90;;;20.60;99.90;;;;;;4960950;28;20453;-65
2022/05/20 09:50:34;;;;;;;7.32;3.13;;;20.40;99.90;;;;;;4980989;28;20046;-66
2022/05/20 09:53:01;;;;;;;9.50;3.20;;;20.30;99.90;;;;;;4982081;28;20042;-65
2022/05/20 09:55:32;;;;;;;7.00;2.80;;;20.20;99.90;;;;;;4980534;28;20579;-66
2022/05/20 09:58:18;;;;;;;6.63;2.92;;;20.20;99.90;;;;;;4979153;28;20053;-65
2022/05/20 10:01:03;;;;;;;8.05;2.58;;;20.00;99.90;;;;;;4982230;28;20438;-65
2022/05/20 10:03:35;;;;;;;7.80;2.83;;;19.90;99.90;;;;;;4974445;28;20066;-65
2022/05/20 10:06:30;;;;;;;7.43;3.03;;;19.80;99.90;;;;;;5007490;28;20042;-66
2022/05/20 10:09:28;;;;;;;8.27;2.63;;;19.80;99.90;;;;;;4987666;28;20244;-65
2022/05/20 10:11:59;;;;;;;7.80;2.53;;;19.60;99.90;;;;;;4983064;28;20045;-65
2022/05/20 10:14:32;;;;;;;;;;;19.40;99.90;;;;;;4983150;28;20068;-66
2022/05/20 10:17:34;;;;;;;7.72;3.00;;;19.30;99.90;;;;;;5004401;28;19984;-66
2022/05/20 10:20:11;;;;;;;8.35;3.00;;;19.30;99.90;;;;;;4974258;28;20046;-66
2022/05/20 10:22:46;;;;;;;7.95;3.28;;;19.20;99.90;;;;;;4976562;28;20578;-66
2022/05/20 10:25:39;;;;;;;12.75;3.30;;;19.40;99.90;;;;;;4972845;28;20046;-66
2022/05/20 10:33:57;;;;;;;8.02;3.22;;;19.50;99.90;;;;;;4972885;28;20428;-66
2022/05/20 10:36:41;;;;;;;9.57;3.35;;;19.60;99.90;;;;;;4974800;28;20054;-66
2022/05/20 10:39:34;;;;;;;9.48;3.55;;;19.60;99.90;;;;;;4984669;28;20538;-66
2022/05/20 10:42:28;;;;;;;6.80;2.65;;;19.50;99.90;;;;;;4970650;28;20511;-66
2022/05/20 10:51:32;;;;;;;7.68;3.22;;;19.60;99.90;;;;;;4982626;28;20057;-65
2022/05/20 10:54:31;;;;;;;8.75;3.55;;;19.70;99.90;;;;;;5006816;28;20156;-65
2022/05/20 10:57:21;;;;;;;7.95;3.20;;;19.70;99.90;;;;;;4979218;28;20614;-65
2022/05/20 11:00:08;;;;;;;7.72;3.75;;;19.70;99.90;;;;;;5009719;28;20046;-66
2022/05/20 11:02:55;;;;;;;10.25;3.60;;;19.70;99.90;;;;;;4994482;28;20134;-66
2022/05/20 11:05:27;;;;;;;8.77;3.15;;;19.80;99.90;;;;;;4996235;28;20062;-66
2022/05/20 11:08:24;;;;;;;6.55;3.08;;;19.90;99.90;;;;;;4990790;28;20042;-67
2022/05/20 11:11:09;;;;;;;16.80;4.10;;;19.80;99.90;;;;;;4966874;28;20050;-68
2022/05/20 11:13:41;;;;;;;7.25;2.92;;;19.70;99.90;;;;;;5000173;28;20050;-66
2022/05/20 11:16:15;;;;;;;7.70;3.20;;;19.70;99.90;;;;;;4972236;28;20044;-66
2022/05/20 11:19:24;;;;;;;8.65;3.17;;;19.80;99.90;;;;;;4977596;28;20046;-66
2022/05/20 11:22:09;;;;;;;7.90;3.22;;;19.80;99.90;;;;;;4994541;28;20062;-66
2022/05/20 11:25:05;;;;;;;6.60;3.25;;;19.90;99.90;;;;;;4984825;28;20594;-66
2022/05/20 11:27:39;;;;;;;6.53;3.10;;;20.10;99.90;;;;;;4984347;28;20407;-65
2022/05/20 11:30:30;;;;;;;6.18;2.65;;;20.10;99.90;;;;;;4972711;28;20039;-66
2022/05/20 11:33:24;;;;;;;8.57;2.95;;;20.20;99.90;;;;;;4972714;28;20046;-65
2022/05/20 11:36:04;;;;;;;6.88;2.35;;;20.20;99.90;;;;;;4969958;28;20043;-66
2022/05/20 11:38:51;;;;;;;8.13;2.60;;;20.30;99.90;;;;;;4968338;28;20049;-65
2022/05/20 11:42:03;;;;;;;7.15;3.05;;;20.30;99.90;;;;;;4971637;28;20047;-65
2022/05/20 11:44:46;;;;;;;8.90;2.70;;;20.30;99.90;;;;;;4961161;28;20062;-66
2022/05/20 11:47:34;;;;;;;9.85;3.50;;;20.30;99.90;;;;;;4977712;28;20424;-67
2022/05/20 11:50:17;;;;;;;8.20;4.40;;;20.40;99.90;;;;;;4989637;28;20058;-65
2022/05/20 11:52:48;;;;;;;8.77;4.30;;;20.50;99.90;;;;;;4993592;28;20053;-65
2022/05/20 11:55:18;;;;;;;8.32;3.97;;;20.50;99.90;;;;;;4979565;28;20129;-66
2022/05/20 11:57:50;;;;;;;7.72;3.75;;;20.60;99.90;;;;;;4977119;28;20046;-66
2022/05/20 12:00:19;;;;;;;7.50;3.95;;;20.60;99.90;;;;;;4980583;28;20057;-66
2022/05/20 12:02:54;;;;;;;8.80;3.47;;;20.60;99.90;;;;;;4985890;28;20775;-66
2022/05/20 12:05:24;;;;;;;8.63;3.53;;;20.60;99.90;;;;;;4980732;28;20065;-66
2022/05/20 12:07:50;;;;;;;7.27;2.53;;;20.70;99.90;;;;;;4982124;28;20088;-66
2022/05/20 12:10:31;;;;;;;6.72;2.88;;;20.60;99.90;;;;;;4976431;28;20054;-66
2022/05/20 12:13:15;;;;;;;6.10;2.60;;;20.60;99.90;;;;;;4965177;28;20058;-66
2022/05/20 12:15:43;;;;;;;8.50;2.30;;;20.60;99.90;;;;;;4980890;28;20049;-66
2022/05/20 12:24:35;;;;;;;6.28;2.45;;;20.20;99.90;;;;;;4978460;28;20050;-66
2022/05/20 12:27:02;;;;;;;6.60;2.40;;;20.30;99.90;;;;;;4974754;28;20515;-66
2022/05/20 12:29:34;;;;;;;5.78;2.72;;;20.30;99.90;;;;;;5006909;28;20061;-66
2022/05/20 12:32:20;;;;;;;7.18;3.30;;;20.40;99.90;;;;;;4977583;28;20181;-66
2022/05/20 12:35:12;;;;;;;7.75;3.13;;;20.50;99.90;;;;;;4966818;28;20145;-66
2022/05/20 12:37:40;;;;;;;8.63;3.78;;;20.80;99.90;;;;;;4974580;28;20453;-66
2022/05/20 12:40:26;;;;;;;5.47;2.97;;;21.00;99.90;;;;;;4987327;28;20438;-66
2022/05/20 12:43:04;;;;;;;9.70;3.72;;;21.10;99.90;;;;;;4971690;28;20428;-66
2022/05/20 12:45:54;;;;;;;9.15;3.67;;;21.10;99.90;;;;;;4978163;28;20062;-66
2022/05/20 12:48:30;;;;;;;5.72;3.38;;;21.00;99.90;;;;;;4980223;28;20050;-66
2022/05/20 12:51:03;;;;;;;11.65;3.92;;;20.80;99.90;;;;;;4980635;28;20100;-67
2022/05/20 12:53:31;;;;;;;10.90;4.05;;;20.70;99.90;;;;;;4975559;28;20165;-66
2022/05/20 12:55:57;;;;;;;7.40;3.33;;;20.60;99.90;;;;;;4979508;28;20521;-66
2022/05/20 12:58:29;;;;;;;9.73;3.55;;;20.70;99.90;;;;;;4982857;28;20180;-66
2022/05/20 13:00:58;;;;;;;7.72;3.00;;;20.70;99.90;;;;;;4984920;28;20149;-66
2022/05/20 13:03:35;;;;;;;5.75;2.40;;;20.80;99.90;;;;;;4984612;28;20129;-64
2022/05/20 13:06:14;;;;;;;6.45;2.25;;;20.80;99.90;;;;;;4981714;28;20587;-66
2022/05/20 13:08:46;;;;;;;8.55;2.40;;;20.80;99.90;;;;;;4985015;28;20053;-66
2022/05/20 13:11:14;;;;;;;6.82;2.83;;;20.70;99.50;;;;;;4985866;28;20865;-66
2022/05/20 13:13:40;;;;;;;5.68;2.65;;;20.40;99.60;;;;;;5007148;28;20054;-66
2022/05/20 13:16:10;;;;;;;5.75;2.67;;;20.30;99.90;;;;;;5003252;28;20056;-66
2022/05/20 13:18:39;;;;;;;6.22;2.83;;;20.10;99.90;;;;;;4984562;28;20042;-66
2022/05/20 13:21:17;;;;;;;5.95;2.70;;;20.00;99.90;;;;;;4988652;28;20039;-67
2022/05/20 13:23:50;;;;;;;6.43;2.50;;;19.80;99.90;;;;;;4980623;28;20111;-66
2022/05/20 13:26:30;;;;;;;7.07;2.80;;;19.50;99.90;;;;;;5008060;28;20046;-66
2022/05/20 13:29:13;;;;;;;6.70;2.30;;;19.40;99.90;;;;;;4982325;28;20307;-66
2022/05/20 13:31:39;;;;;;;6.38;2.78;;;19.30;99.90;;;;;;4984899;28;20065;-66
2022/05/20 13:34:05;;;;;;;7.35;3.15;;;19.20;99.90;;;;;;4958356;28;20756;-66
2022/05/20 13:36:42;;;;;;;8.45;3.42;;;19.10;99.90;;;;;;4982066;28;20137;-66
2022/05/20 13:39:15;;;;;;;7.13;3.70;;;19.00;99.90;;;;;;4983123;28;20045;-66
2022/05/20 13:41:41;;;;;;;7.10;4.00;;;18.90;99.90;;;;;;4988414;28;20043;-66
2022/05/20 13:44:08;;;;;;;8.05;3.92;;;18.90;99.90;;;;;;4989706;28;20120;-66